Weather reports worldwide

Advertisment
Epinal, France (7173): temperature & dewpoint: 08.07.2020 11:00:00 - 14.07.2020 11:00:00 (CEST)Epinal, France (7173): wind speed & gusts: 08.07.2020 11:00:00 - 14.07.2020 11:00:00 (CEST)Epinal, France (7173): wind direction: 08.07.2020 11:00:00 - 14.07.2020 11:00:00 (CEST)Epinal, France (7173): sunshine duration: 08.07.2020 11:00:00 - 14.07.2020 11:00:00 (CEST)Epinal, France (7173): precipitation: 08.07.2020 11:00:00 - 14.07.2020 11:00:00 (CEST)
Date & Time tt [°C] td [°C] ff [km/h] ff [kn] fx [km/h] fx [kn] dd sd [min] rr [mm]
14.07.2020 11:00:00 - - - - - - - - -
14.07.2020 10:00:00 21,4 7,6 2 1 6 3 SW 41 0,0
14.07.2020 09:00:00 19,3 10,8 2 1 5 3 E 40 0,0
14.07.2020 08:00:00 16,4 10,3 0 0 2 1 N 29 0,0
14.07.2020 07:00:00 12,0 9,4 0 0 4 2 N 35 0,0
14.07.2020 06:00:00 9,9 8,2 2 1 8 4 SE 0 0,0
14.07.2020 05:00:00 10,0 8,3 3 2 5 3 ESE 0 0,0
14.07.2020 04:00:00 10,7 8,5 3 2 5 3 ESE 0 0,0
14.07.2020 03:00:00 11,7 9,1 3 2 4 2 ESE 0 0,0
14.07.2020 02:00:00 11,8 9,0 0 0 3 2 N 0 0,0
14.07.2020 01:00:00 13,7 8,9 3 2 6 3 ESE 0 0,0
14.07.2020 00:00:00 14,2 8,2 0 0 4 2 N 0 0,0
13.07.2020 23:00:00 16,1 7,8 4 2 5 3 ESE 0 0,0
13.07.2020 22:00:00 18,4 7,8 3 1 9 5 E 4 0,0
13.07.2020 21:00:00 22,5 7,1 8 4 19 10 N 60 0,0
13.07.2020 20:00:00 24,6 6,3 15 8 23 12 N 60 0,0
13.07.2020 19:00:00 25,6 6,2 13 7 26 14 NNW 60 0,0
13.07.2020 18:00:00 26,4 5,3 6 3 21 12 NNW 60 0,0
13.07.2020 17:00:00 26,1 6,7 7 4 21 12 NNW 51 0,0
13.07.2020 16:00:00 26,1 6,2 8 4 25 14 ENE 58 0,0
13.07.2020 15:00:00 25,5 5,6 8 5 24 13 ENE 60 0,0
13.07.2020 14:00:00 25,3 6,0 11 6 27 15 N 60 0,0
13.07.2020 13:00:00 24,3 5,6 5 3 22 12 SSE 56 0,0
13.07.2020 12:00:00 23,5 8,4 9 5 27 14 E 60 0,0
13.07.2020 11:00:00 22,7 8,8 8 4 18 10 NE 60 0,0
13.07.2020 10:00:00 19,6 10,0 6 4 11 6 NNW 55 0,0
13.07.2020 09:00:00 16,9 9,3 2 1 6 3 NNE 58 0,0
13.07.2020 08:00:00 14,7 9,1 0 0 4 2 N 60 0,0
13.07.2020 07:00:00 10,7 8,6 0 0 4 2 N 15 0,0
13.07.2020 06:00:00 8,8 6,9 0 0 3 1 N 0 0,0
13.07.2020 05:00:00 9,0 6,4 0 0 4 2 N 0 0,0
13.07.2020 04:00:00 10,2 7,1 2 1 4 2 E 0 0,0
13.07.2020 03:00:00 10,9 7,4 2 1 5 3 ESE 0 0,0
13.07.2020 02:00:00 11,4 6,9 0 0 5 3 N 0 0,0
13.07.2020 01:00:00 12,5 7,4 0 0 4 2 N 0 0,0
13.07.2020 00:00:00 14,0 7,3 0 0 8 5 N 0 0,0
12.07.2020 23:00:00 17,0 6,5 3 2 12 7 ENE 0 0,0
12.07.2020 22:00:00 19,1 6,2 6 3 21 11 NE 5 0,0
12.07.2020 21:00:00 21,9 5,7 14 8 27 14 NNE 55 0,0
12.07.2020 20:00:00 23,7 5,1 16 9 32 17 NNE 60 0,0
12.07.2020 19:00:00 24,4 4,7 18 10 29 16 NNE 60 0,0
12.07.2020 18:00:00 25,2 4,3 18 10 30 16 N 60 0,0
12.07.2020 17:00:00 25,0 3,6 16 8 28 15 NE 60 0,0
12.07.2020 16:00:00 25,0 4,7 11 6 30 16 ENE 60 0,0
12.07.2020 15:00:00 24,3 5,1 17 9 33 18 NNE 60 0,0
12.07.2020 14:00:00 23,6 5,0 16 8 38 21 NE 60 0,0
12.07.2020 13:00:00 22,8 5,7 17 9 34 18 NNE 60 0,0
12.07.2020 12:00:00 22,3 6,1 13 7 31 17 NE 60 0,0
12.07.2020 11:00:00 20,9 7,5 15 8 27 15 NNE 60 0,0
12.07.2020 10:00:00 19,1 8,1 12 6 22 12 NE 60 0,0
12.07.2020 09:00:00 15,8 8,8 5 3 10 5 NNE 60 0,0
12.07.2020 08:00:00 12,3 7,6 2 1 5 3 NNE 60 0,0
12.07.2020 07:00:00 8,6 7,2 0 0 3 2 N 9 0,0
12.07.2020 06:00:00 6,6 5,1 0 0 5 3 N 0 0,0
12.07.2020 05:00:00 7,2 6,3 2 1 3 2 ESE 0 0,0
12.07.2020 04:00:00 7,8 6,6 0 0 4 2 N 0 0,0
12.07.2020 03:00:00 8,8 6,6 2 1 4 2 E 0 0,0
12.07.2020 02:00:00 9,6 7,0 0 0 4 2 N 0 0,0
12.07.2020 01:00:00 10,5 6,8 0 0 5 3 N 0 0,0
12.07.2020 00:00:00 11,6 6,3 0 0 4 2 N 0 0,0
11.07.2020 23:00:00 14,1 6,7 4 2 10 5 E 0 0,0
11.07.2020 22:00:00 17,2 5,5 6 3 16 9 NE 5 0,0
11.07.2020 21:00:00 19,8 5,1 10 5 22 12 NNE 60 0,0
11.07.2020 20:00:00 21,2 4,7 13 7 24 13 N 60 0,0
11.07.2020 19:00:00 21,6 5,1 16 9 30 16 N 56 0,0
11.07.2020 18:00:00 22,2 5,6 14 7 30 16 NNE 49 0,0
11.07.2020 17:00:00 22,8 5,7 14 8 27 15 NNW 53 0,0
11.07.2020 16:00:00 22,1 5,9 15 8 32 18 N 58 0,0
11.07.2020 15:00:00 21,8 5,2 12 6 31 17 N 60 0,0
11.07.2020 14:00:00 21,2 6,7 11 6 30 16 N 45 0,0
11.07.2020 13:00:00 20,6 6,5 13 7 28 15 N 35 0,0
11.07.2020 12:00:00 19,9 8,2 12 6 24 13 NE 47 0,0
11.07.2020 11:00:00 17,9 9,0 11 6 24 13 N 38 0,0
11.07.2020 10:00:00 17,6 11,2 13 7 23 12 NNE 54 0,0
11.07.2020 09:00:00 15,6 11,4 13 7 19 10 NNE 53 0,0
11.07.2020 08:00:00 15,3 11,5 6 3 14 7 NE 60 0,0
11.07.2020 07:00:00 13,0 11,4 2 1 8 4 ESE 10 0,0
11.07.2020 06:00:00 12,3 10,7 6 3 11 6 N 0 0,0
11.07.2020 05:00:00 13,7 11,6 4 2 11 6 NNE 0 0,0
11.07.2020 04:00:00 14,6 12,1 5 3 10 6 N 0 0,0
11.07.2020 03:00:00 15,7 12,6 5 3 13 7 N 0 0,0
11.07.2020 02:00:00 15,8 14,8 0 0 7 4 N 0 0,0
11.07.2020 01:00:00 15,8 15,0 3 1 7 4 S 0 0,0
11.07.2020 00:00:00 16,1 15,5 3 2 7 4 SE 0 0,2
10.07.2020 23:00:00 16,2 15,6 3 1 7 4 SE 0 0,4
10.07.2020 22:00:00 16,7 15,2 0 0 9 5 N 0 0,2
10.07.2020 21:00:00 18,0 13,3 7 4 32 17 NW 0 0,0
10.07.2020 20:00:00 20,2 11,7 12 7 26 14 NW 0 0,0
10.07.2020 19:00:00 21,3 12,4 8 4 27 15 WNW 0 0,0
10.07.2020 18:00:00 22,3 12,0 15 8 28 15 WNW 0 0,0
10.07.2020 17:00:00 22,6 13,1 18 10 35 19 NW 2 0,0
10.07.2020 16:00:00 24,0 12,0 20 11 34 18 W 13 0,0
10.07.2020 15:00:00 23,7 12,7 16 8 37 20 W 15 0,0
10.07.2020 14:00:00 23,3 13,7 16 9 31 17 W 10 0,0
10.07.2020 13:00:00 23,2 13,7 16 9 37 20 WSW 14 0,0
10.07.2020 12:00:00 22,7 13,5 23 12 37 20 WSW 39 0,0
10.07.2020 11:00:00 23,7 14,4 18 10 41 22 WSW 60 0,0
10.07.2020 10:00:00 22,3 14,2 12 6 29 16 W 60 0,0
10.07.2020 09:00:00 21,7 13,6 16 9 29 15 WSW 60 0,0
10.07.2020 08:00:00 21,4 13,3 17 9 27 14 SW 57 0,0
10.07.2020 07:00:00 20,5 13,0 13 7 23 12 SSW 10 0,0
10.07.2020 06:00:00 19,4 12,6 11 6 18 10 SSW 0 0,0
10.07.2020 05:00:00 17,7 13,0 10 5 14 7 S 0 0,0
10.07.2020 04:00:00 16,1 12,8 0 0 5 3 N 0 0,0
10.07.2020 03:00:00 16,4 13,7 2 1 4 2 SSE 0 0,0
10.07.2020 02:00:00 16,9 14,2 0 0 2 1 N 0 0,0
10.07.2020 01:00:00 17,9 14,4 0 0 4 2 N 0 0,0
10.07.2020 00:00:00 18,7 14,6 0 0 5 3 N 0 0,0
09.07.2020 23:00:00 20,3 15,1 3 1 5 3 ESE 0 0,0
09.07.2020 22:00:00 22,7 15,0 2 1 7 4 ESE 7 0,0
09.07.2020 21:00:00 26,7 15,1 6 3 17 9 WSW 60 0,0
09.07.2020 20:00:00 29,3 13,9 10 5 23 13 SW 60 0,0
09.07.2020 19:00:00 30,6 12,0 10 5 25 14 WSW 58 0,0
09.07.2020 18:00:00 30,0 12,4 10 5 28 15 WSW 39 0,0
09.07.2020 17:00:00 29,8 13,1 15 8 29 16 S 45 0,0
09.07.2020 16:00:00 29,9 12,8 17 9 33 18 WSW 46 0,0
09.07.2020 15:00:00 29,0 13,6 16 9 35 19 WSW 50 0,0
09.07.2020 14:00:00 27,8 13,3 17 9 32 18 WSW 56 0,0
09.07.2020 13:00:00 27,2 12,8 18 10 33 18 WSW 55 0,0
09.07.2020 12:00:00 26,7 13,4 16 9 28 15 W 58 0,0
09.07.2020 11:00:00 25,4 13,6 14 7 24 13 SW 60 0,0
09.07.2020 10:00:00 24,5 13,4 14 8 22 12 SSW 60 0,0
09.07.2020 09:00:00 21,8 13,9 4 2 9 5 SSW 44 0,0
09.07.2020 08:00:00 18,1 13,6 0 0 4 2 N 15 0,0
09.07.2020 07:00:00 15,4 12,5 3 1 5 3 S 0 0,0
09.07.2020 06:00:00 14,1 12,5 0 0 3 2 N 0 0,0
09.07.2020 05:00:00 14,0 12,4 0 0 8 4 N 0 0,0
09.07.2020 04:00:00 13,4 12,1 0 0 3 2 N 0 0,0
09.07.2020 03:00:00 13,8 12,5 0 0 4 2 N 0 0,0
09.07.2020 02:00:00 14,7 12,6 3 1 4 2 E 0 0,0
09.07.2020 01:00:00 14,9 12,8 0 0 7 4 N 0 0,0
09.07.2020 00:00:00 16,2 13,1 2 1 6 3 E 0 0,0
08.07.2020 23:00:00 17,5 12,8 3 2 5 3 ESE 0 0,0
08.07.2020 22:00:00 19,2 13,6 2 1 6 3 SE 6 0,0
08.07.2020 21:00:00 23,6 12,6 3 1 10 5 NNW 22 0,0
08.07.2020 20:00:00 24,6 12,2 7 4 23 12 NW 29 0,0
08.07.2020 19:00:00 26,0 11,4 15 8 31 17 WNW 50 0,0
08.07.2020 18:00:00 26,2 11,5 16 9 32 17 W 23 0,0
08.07.2020 17:00:00 26,6 11,1 12 6 28 15 W 30 0,0
08.07.2020 16:00:00 25,3 9,6 16 9 34 18 WSW 42 0,0
08.07.2020 15:00:00 25,4 10,8 16 9 35 19 WSW 39 0,0
08.07.2020 14:00:00 24,6 10,5 16 9 29 16 WSW 46 0,0
08.07.2020 13:00:00 23,7 10,4 17 9 26 14 SW 40 0,0
08.07.2020 12:00:00 23,0 9,4 16 9 29 16 WSW 60 0,0
08.07.2020 11:00:00 22,1 9,6 13 7 24 13 WSW 60 0,0

tt = temperature
td = dewpoint
ff = wind speed
fx = gusts
dd = wind direction
sd = sunshine duration
rr = precipitation

Next stations